createdAt,value
2019-05-25T00:00:34.898Z,72.58
2019-05-25T00:03:02.939Z,72.55
2019-05-25T00:05:31.336Z,72.42
2019-05-25T00:07:59.219Z,72.38
2019-05-25T00:10:27.202Z,72.51
2019-05-25T00:12:54.972Z,72.50
2019-05-25T00:15:22.857Z,72.61
2019-05-25T00:17:50.623Z,72.79
2019-05-25T00:20:18.648Z,72.79
2019-05-25T00:22:46.364Z,72.60
2019-05-25T00:25:14.343Z,72.65
2019-05-25T00:27:42.084Z,73.03
2019-05-25T00:30:10.072Z,73.27
2019-05-25T00:32:37.788Z,73.46
2019-05-25T00:35:05.762Z,73.46
2019-05-25T00:37:34.102Z,73.72
2019-05-25T00:40:01.990Z,73.65
2019-05-25T00:42:29.714Z,73.87
2019-05-25T00:44:57.480Z,73.89
2019-05-25T00:47:25.227Z,73.96
2019-05-25T00:49:53.093Z,73.99
2019-05-25T00:52:21.198Z,74.14
2019-05-25T00:54:48.996Z,74.28
2019-05-25T00:57:16.708Z,74.70
2019-05-25T00:59:44.402Z,74.70
2019-05-25T01:02:12.270Z,74.57
2019-05-25T01:04:39.998Z,74.76
2019-05-25T01:07:07.866Z,74.83
2019-05-25T01:09:35.603Z,75.13
2019-05-25T01:12:03.499Z,75.19
2019-05-25T01:14:31.423Z,75.19
2019-05-25T01:16:59.196Z,75.15
2019-05-25T01:19:28.809Z,75.15
2019-05-25T01:21:56.560Z,75.57
2019-05-25T01:24:24.378Z,75.36
2019-05-25T01:26:52.253Z,75.61
2019-05-25T01:29:19.981Z,75.38
2019-05-25T01:31:47.842Z,75.38
2019-05-25T01:34:15.549Z,75.58
2019-05-25T01:36:43.295Z,75.62
2019-05-25T01:39:10.990Z,75.62
2019-05-25T01:41:38.837Z,76.07
2019-05-25T01:44:06.533Z,76.01
2019-05-25T01:46:34.439Z,76.36
2019-05-25T01:49:02.150Z,76.40
2019-05-25T01:51:29.967Z,76.40
2019-05-25T01:53:57.716Z,76.24
2019-05-25T01:56:25.487Z,76.25
2019-05-25T01:58:53.226Z,76.28
2019-05-25T02:01:21.603Z,76.17
2019-05-25T02:03:49.408Z,76.17
2019-05-25T02:06:17.305Z,76.72
2019-05-25T02:08:45.932Z,77.16
2019-05-25T02:11:13.808Z,77.19
2019-05-25T02:13:41.543Z,77.19
2019-05-25T02:16:09.435Z,77.24
2019-05-25T02:18:37.156Z,77.70
2019-05-25T02:21:05.159Z,77.71
2019-05-25T02:23:32.898Z,77.78
2019-05-25T02:26:01.455Z,77.78
2019-05-25T02:28:29.259Z,77.88
2019-05-25T02:30:57.066Z,78.00
2019-05-25T02:33:24.793Z,77.82
2019-05-25T02:35:52.597Z,77.82
2019-05-25T02:38:21.167Z,77.73
2019-05-25T02:40:49.006Z,77.78
2019-05-25T02:43:16.867Z,77.94
2019-05-25T02:45:44.772Z,78.67
2019-05-25T02:48:14.144Z,78.67
2019-05-25T02:50:41.954Z,78.33
2019-05-25T02:53:09.793Z,78.22
2019-05-25T02:55:37.580Z,78.31
2019-05-25T02:58:05.515Z,78.31
2019-05-25T03:00:33.695Z,77.97
2019-05-25T03:03:02.497Z,78.38
2019-05-25T03:05:31.312Z,78.38
2019-05-25T03:07:59.298Z,78.36
2019-05-25T03:10:28.711Z,78.37
2019-05-25T03:12:56.694Z,78.44
2019-05-25T03:15:24.513Z,78.35
2019-05-25T03:17:52.269Z,78.35
2019-05-25T03:20:20.230Z,78.62
2019-05-25T03:22:48.008Z,78.43
2019-05-25T03:25:16.347Z,78.40
2019-05-25T03:27:44.206Z,78.40
2019-05-25T03:30:13.951Z,78.33
2019-05-25T03:32:42.414Z,78.39
2019-05-25T03:35:10.335Z,78.51
2019-05-25T03:37:38.098Z,78.44
2019-05-25T03:40:06.776Z,78.98
2019-05-25T03:42:34.529Z,79.47
2019-05-25T03:45:02.391Z,79.78
2019-05-25T03:47:30.165Z,80.59
2019-05-25T03:49:57.867Z,80.59
2019-05-25T03:52:25.784Z,80.05
2019-05-25T03:54:53.574Z,80.05
2019-05-25T03:57:21.509Z,80.44
2019-05-25T03:59:49.706Z,80.39
2019-05-25T04:02:17.473Z,80.58
2019-05-25T04:04:45.178Z,80.24
2019-05-25T04:07:12.976Z,80.43
2019-05-25T04:09:40.772Z,80.86
2019-05-25T04:12:08.555Z,81.14
2019-05-25T04:14:37.246Z,81.08
2019-05-25T04:17:05.019Z,83.50
2019-05-25T04:19:32.714Z,83.01
2019-05-25T04:22:00.488Z,82.56
2019-05-25T04:24:28.207Z,82.15
2019-05-25T04:26:55.895Z,82.62
2019-05-25T04:29:23.673Z,84.45
2019-05-25T04:31:51.489Z,82.87
2019-05-25T04:34:19.335Z,85.86
2019-05-25T04:36:47.051Z,85.75
2019-05-25T04:39:14.801Z,85.75
2019-05-25T04:41:42.539Z,85.67
2019-05-25T04:44:10.268Z,86.03
2019-05-25T04:46:38.359Z,84.89
2019-05-25T04:49:06.129Z,83.60
2019-05-25T04:51:33.812Z,83.60
2019-05-25T04:54:01.580Z,84.02
2019-05-25T04:56:38.810Z,85.88
2019-05-25T04:58:59.036Z,85.88
2019-05-25T05:01:26.747Z,83.40
2019-05-25T05:03:54.526Z,84.10
2019-05-25T05:06:22.370Z,84.00
2019-05-25T05:08:50.141Z,83.27
2019-05-25T05:11:17.981Z,83.56
2019-05-25T05:13:45.793Z,83.22
2019-05-25T05:16:13.526Z,83.22
2019-05-25T05:18:41.306Z,83.68
2019-05-25T05:21:09.186Z,82.99
2019-05-25T05:23:37.043Z,82.99
2019-05-25T05:26:06.200Z,84.10
2019-05-25T05:28:34.138Z,83.73
2019-05-25T05:31:02.000Z,85.84
2019-05-25T05:33:30.666Z,86.17
2019-05-25T05:35:59.500Z,87.18
2019-05-25T05:38:27.785Z,85.47
2019-05-25T05:40:56.885Z,85.66
2019-05-25T05:43:27.957Z,85.66
2019-05-25T05:45:56.491Z,84.43
2019-05-25T05:48:26.864Z,85.32
2019-05-25T05:50:58.936Z,85.32
2019-05-25T05:53:26.668Z,86.26
2019-05-25T05:55:54.696Z,85.64
2019-05-25T05:58:22.576Z,85.64
2019-05-25T06:00:51.081Z,86.03
2019-05-25T06:03:19.132Z,85.89
2019-05-25T06:05:46.955Z,84.99
2019-05-25T06:08:14.831Z,85.01
2019-05-25T06:10:42.576Z,84.24
2019-05-25T06:13:10.783Z,84.64
2019-05-25T06:15:38.551Z,86.12
2019-05-25T06:18:06.266Z,84.05
2019-05-25T06:20:34.006Z,79.64
2019-05-25T06:23:01.794Z,78.16
2019-05-25T06:25:30.355Z,75.74
2019-05-25T06:27:58.055Z,76.13
2019-05-25T06:30:26.059Z,72.70
2019-05-25T06:32:53.800Z,72.70
2019-05-25T06:35:22.374Z,72.38
2019-05-25T06:37:50.059Z,72.15
2019-05-25T06:40:18.021Z,71.00
2019-05-25T06:42:45.714Z,71.65
2019-05-25T06:45:13.698Z,71.77
2019-05-25T06:47:42.202Z,71.27
2019-05-25T06:50:10.354Z,70.67
2019-05-25T06:52:38.149Z,68.16
2019-05-25T06:55:07.167Z,68.06
2019-05-25T06:57:43.223Z,67.14
2019-05-25T07:00:05.553Z,67.09
2019-05-25T07:02:33.372Z,67.14
2019-05-25T07:05:01.100Z,65.98
2019-05-25T07:07:28.826Z,66.43
2019-05-25T07:09:56.587Z,66.55
2019-05-25T07:12:24.311Z,66.16
2019-05-25T07:14:52.041Z,66.31
2019-05-25T07:17:19.832Z,66.11
2019-05-25T07:19:47.576Z,64.46
2019-05-25T07:22:15.320Z,65.15
2019-05-25T07:24:43.790Z,64.03
2019-05-25T07:27:12.296Z,64.23
2019-05-25T07:29:40.077Z,63.29
2019-05-25T07:32:07.984Z,63.76
2019-05-25T07:34:35.918Z,64.47
2019-05-25T07:37:04.407Z,64.27
2019-05-25T07:39:32.297Z,64.43
2019-05-25T07:42:00.214Z,63.92
2019-05-25T07:44:28.044Z,64.82
2019-05-25T07:46:55.787Z,64.69
2019-05-25T07:49:23.624Z,65.07
2019-05-25T07:51:51.373Z,63.76
2019-05-25T07:54:19.137Z,62.64
2019-05-25T07:56:47.445Z,62.13
2019-05-25T07:59:15.176Z,63.04
2019-05-25T08:01:43.007Z,62.72
2019-05-25T08:04:10.795Z,63.46
2019-05-25T08:06:38.544Z,63.87
2019-05-25T08:09:07.268Z,62.34
2019-05-25T08:11:35.843Z,62.99
2019-05-25T08:14:03.825Z,63.30
2019-05-25T08:16:33.492Z,63.31
2019-05-25T08:19:01.310Z,63.14
2019-05-25T08:21:29.103Z,63.39
2019-05-25T08:23:56.940Z,62.45
2019-05-25T08:26:24.798Z,61.35
2019-05-25T08:28:52.480Z,61.44
2019-05-25T08:31:20.239Z,60.51
2019-05-25T08:33:47.928Z,61.16
2019-05-25T08:36:15.811Z,60.27
2019-05-25T08:38:43.497Z,61.04
2019-05-25T08:41:11.284Z,61.14
2019-05-25T08:43:39.631Z,59.22
2019-05-25T08:46:07.662Z,58.25
2019-05-25T08:48:35.348Z,57.15
2019-05-25T08:51:03.252Z,57.04
2019-05-25T08:53:40.808Z,57.67
2019-05-25T08:56:00.675Z,57.33
2019-05-25T08:58:28.377Z,53.55
2019-05-25T09:00:56.159Z,52.28
2019-05-25T09:03:25.810Z,53.75
2019-05-25T09:05:53.555Z,54.61
2019-05-25T09:08:21.242Z,54.42
2019-05-25T09:10:49.011Z,52.93
2019-05-25T09:13:16.701Z,54.06
2019-05-25T09:15:44.499Z,52.04
2019-05-25T09:18:12.801Z,52.56
2019-05-25T09:20:40.575Z,51.70
2019-05-25T09:23:08.633Z,51.77
2019-05-25T09:25:36.364Z,50.05
2019-05-25T09:28:04.225Z,50.30
2019-05-25T09:30:32.140Z,50.72
2019-05-25T09:32:59.959Z,49.36
2019-05-25T09:35:27.644Z,49.67
2019-05-25T09:37:55.392Z,48.00
2019-05-25T09:40:23.191Z,47.92
2019-05-25T09:42:50.986Z,48.35
2019-05-25T09:45:18.954Z,48.37
2019-05-25T09:47:46.704Z,48.66
2019-05-25T09:50:14.626Z,45.08
2019-05-25T09:52:42.375Z,44.56
2019-05-25T09:55:10.788Z,43.43
2019-05-25T09:57:41.654Z,42.47
2019-05-25T10:00:09.071Z,42.35
2019-05-25T10:02:36.958Z,43.68
2019-05-25T10:05:05.544Z,42.52
2019-05-25T10:07:33.519Z,41.93
2019-05-25T10:10:01.792Z,40.96
2019-05-25T10:12:29.584Z,41.62
2019-05-25T10:14:58.696Z,41.18
2019-05-25T10:17:26.464Z,41.08
2019-05-25T10:19:54.168Z,41.28
2019-05-25T10:22:21.987Z,41.89
2019-05-25T10:24:49.949Z,41.79
2019-05-25T10:27:17.726Z,42.08
2019-05-25T10:29:45.427Z,42.05
2019-05-25T10:32:13.401Z,42.46
2019-05-25T10:34:41.101Z,42.95
2019-05-25T10:37:08.946Z,41.72
2019-05-25T10:39:37.357Z,41.35
2019-05-25T10:42:06.004Z,41.36
2019-05-25T10:44:33.697Z,41.01
2019-05-25T10:47:01.450Z,40.88
2019-05-25T10:49:29.158Z,39.67
2019-05-25T10:51:56.919Z,39.65
2019-05-25T10:54:24.630Z,39.06
2019-05-25T10:56:52.458Z,39.56
2019-05-25T10:59:20.256Z,39.90
2019-05-25T11:01:48.028Z,40.31
2019-05-25T11:04:15.731Z,40.08
2019-05-25T11:06:43.476Z,39.94
2019-05-25T11:09:11.357Z,39.27
2019-05-25T11:11:39.141Z,39.92
2019-05-25T11:14:06.951Z,40.99
2019-05-25T11:16:34.836Z,40.99
2019-05-25T11:19:03.322Z,40.86
2019-05-25T11:21:31.013Z,41.63
2019-05-25T11:23:58.989Z,40.52
2019-05-25T11:26:26.779Z,39.92
2019-05-25T11:28:54.744Z,38.37
2019-05-25T11:31:22.538Z,38.49
2019-05-25T11:33:50.275Z,38.23
2019-05-25T11:36:18.079Z,38.94
2019-05-25T11:38:45.926Z,38.83
2019-05-25T11:41:13.721Z,39.21
2019-05-25T11:43:42.406Z,39.39
2019-05-25T11:46:10.108Z,39.82
2019-05-25T11:48:38.149Z,39.31
2019-05-25T11:51:05.925Z,39.87
2019-05-25T11:53:33.696Z,39.79
2019-05-25T11:56:01.465Z,42.02
2019-05-25T11:58:29.274Z,42.03
2019-05-25T12:00:57.081Z,42.50
2019-05-25T12:03:24.843Z,42.16
2019-05-25T12:05:52.678Z,42.58
2019-05-25T12:08:21.082Z,42.80
2019-05-25T12:10:52.638Z,43.56
2019-05-25T12:13:20.394Z,43.53
2019-05-25T12:15:48.128Z,44.19
2019-05-25T12:18:16.020Z,45.01
2019-05-25T12:20:43.814Z,45.32
2019-05-25T12:23:11.831Z,44.88
2019-05-25T12:25:39.645Z,44.82
2019-05-25T12:28:07.391Z,45.56
2019-05-25T12:30:40.878Z,45.88
2019-05-25T12:33:05.241Z,45.11
2019-05-25T12:35:32.972Z,45.83
2019-05-25T12:38:00.727Z,45.86
2019-05-25T12:40:28.401Z,45.51
2019-05-25T12:42:56.281Z,46.16
2019-05-25T12:45:24.070Z,46.05
2019-05-25T12:47:52.778Z,46.17
2019-05-25T12:50:21.163Z,45.86
2019-05-25T12:52:48.959Z,45.95
2019-05-25T12:55:16.873Z,46.40
2019-05-25T12:57:44.752Z,47.09
2019-05-25T13:00:15.967Z,47.47
2019-05-25T13:02:43.542Z,46.99
2019-05-25T13:05:13.264Z,46.86
2019-05-25T13:07:41.066Z,46.50
2019-05-25T13:10:09.306Z,46.61
2019-05-25T13:12:37.008Z,46.63
2019-05-25T13:15:05.570Z,47.04
2019-05-25T13:17:33.328Z,48.26
2019-05-25T13:20:01.172Z,47.17
2019-05-25T13:22:28.907Z,45.52
2019-05-25T13:24:57.436Z,46.29
2019-05-25T13:27:25.312Z,46.44
2019-05-25T13:29:53.482Z,46.62
2019-05-25T13:32:21.321Z,46.59
2019-05-25T13:34:49.193Z,47.42
2019-05-25T13:37:17.809Z,45.95
2019-05-25T13:39:46.171Z,44.52
2019-05-25T13:42:13.872Z,43.71
2019-05-25T13:44:41.595Z,44.30
2019-05-25T13:47:09.313Z,43.60
2019-05-25T13:49:37.057Z,44.84
2019-05-25T13:52:04.862Z,46.22
2019-05-25T13:54:32.639Z,46.49
2019-05-25T13:57:00.524Z,46.51
2019-05-25T13:59:28.256Z,46.76
2019-05-25T14:01:55.970Z,46.32
2019-05-25T14:04:23.737Z,45.95
2019-05-25T14:06:51.453Z,45.79
2019-05-25T14:09:20.493Z,45.72
2019-05-25T14:11:48.750Z,45.86
2019-05-25T14:14:16.525Z,45.17
2019-05-25T14:16:44.203Z,44.94
2019-05-25T14:19:11.952Z,44.97
2019-05-25T14:21:39.621Z,45.10
2019-05-25T14:24:07.606Z,45.04
2019-05-25T14:26:35.334Z,44.65
2019-05-25T14:29:03.290Z,44.89
2019-05-25T14:31:44.382Z,45.28
2019-05-25T14:34:00.739Z,45.36
2019-05-25T14:36:30.400Z,45.77
2019-05-25T14:38:58.178Z,46.10
2019-05-25T14:41:25.968Z,46.55
2019-05-25T14:43:54.327Z,47.22
2019-05-25T14:46:27.857Z,47.08
2019-05-25T14:48:51.722Z,46.91
2019-05-25T14:51:19.488Z,46.53
2019-05-25T14:53:47.442Z,45.48
2019-05-25T14:56:15.149Z,46.37
2019-05-25T14:58:42.980Z,45.89
2019-05-25T15:01:10.808Z,46.69
2019-05-25T15:03:38.825Z,47.20
2019-05-25T15:06:06.898Z,47.14
2019-05-25T15:08:35.835Z,46.90
2019-05-25T15:11:04.305Z,47.52
2019-05-25T15:13:32.032Z,47.28
2019-05-25T15:15:59.707Z,47.56
2019-05-25T15:18:27.461Z,48.06
2019-05-25T15:20:55.238Z,47.14
2019-05-25T15:23:22.985Z,47.22
2019-05-25T15:25:52.059Z,45.95
2019-05-25T15:28:19.825Z,46.07
2019-05-25T15:30:47.521Z,46.12
2019-05-25T15:33:15.401Z,46.24
2019-05-25T15:35:43.168Z,46.24
2019-05-25T15:38:11.107Z,47.22
2019-05-25T15:40:39.237Z,47.04
2019-05-25T15:43:07.073Z,47.16
2019-05-25T15:45:34.779Z,46.46
2019-05-25T15:48:02.621Z,46.69
2019-05-25T15:50:30.493Z,46.69
2019-05-25T15:52:59.088Z,46.88
2019-05-25T15:55:27.203Z,47.60
2019-05-25T15:57:55.158Z,47.86
2019-05-25T16:00:40.432Z,47.31
2019-05-25T16:03:08.090Z,48.11
2019-05-25T16:05:35.828Z,48.11
2019-05-25T16:08:04.112Z,47.86
2019-05-25T16:10:31.853Z,48.15
2019-05-25T16:12:59.503Z,47.34
2019-05-25T16:15:27.973Z,46.67
2019-05-25T16:17:56.236Z,46.96
2019-05-25T16:20:24.113Z,45.71
2019-05-25T16:22:51.914Z,44.57
2019-05-25T16:25:20.462Z,45.60
2019-05-25T16:27:48.151Z,46.25
2019-05-25T16:30:16.201Z,46.29
2019-05-25T16:35:13.778Z,47.03
2019-05-25T16:37:42.446Z,47.26
2019-05-25T16:40:10.824Z,47.51
2019-05-25T16:42:38.538Z,48.41
2019-05-25T16:45:07.905Z,48.47
2019-05-25T16:47:35.777Z,48.47
2019-05-25T16:50:04.482Z,49.20
2019-05-25T16:52:32.987Z,49.50
2019-05-25T16:55:01.569Z,49.68
2019-05-25T16:57:29.728Z,49.68
2019-05-25T16:59:57.453Z,49.75
2019-05-25T17:02:25.270Z,50.51
2019-05-25T17:04:53.132Z,51.04
2019-05-25T17:07:20.882Z,50.62
2019-05-25T17:09:49.243Z,51.30
2019-05-25T17:12:16.936Z,51.32
2019-05-25T17:14:46.222Z,54.55
2019-05-25T17:17:14.140Z,55.34
2019-05-25T17:19:41.916Z,56.35
2019-05-25T17:22:11.318Z,57.29
2019-05-25T17:24:39.915Z,56.85
2019-05-25T17:27:07.635Z,58.42
2019-05-25T17:29:35.723Z,59.45
2019-05-25T17:32:03.940Z,59.17
2019-05-25T17:34:31.819Z,60.02
2019-05-25T17:36:59.667Z,60.22
2019-05-25T17:39:27.578Z,60.05
2019-05-25T17:41:55.401Z,60.11
2019-05-25T17:44:23.103Z,60.00
2019-05-25T17:46:51.059Z,60.61
2019-05-25T17:49:18.929Z,60.10
2019-05-25T17:51:46.659Z,60.39
2019-05-25T17:54:14.339Z,60.09
2019-05-25T17:56:42.178Z,60.34
2019-05-25T17:59:09.921Z,60.79
2019-05-25T18:01:37.790Z,61.12
2019-05-25T18:04:07.765Z,60.69
2019-05-25T18:06:35.254Z,61.10
2019-05-25T18:09:04.858Z,60.67
2019-05-25T18:11:32.613Z,60.26
2019-05-25T18:14:00.291Z,59.81
2019-05-25T18:16:28.066Z,59.36
2019-05-25T18:18:55.875Z,59.14
2019-05-25T18:21:23.707Z,59.07
2019-05-25T18:23:51.489Z,58.77
2019-05-25T18:26:19.250Z,58.53
2019-05-25T18:28:47.097Z,58.44
2019-05-25T18:31:14.823Z,58.43
2019-05-25T18:33:42.672Z,58.33
2019-05-25T18:36:10.458Z,58.29
2019-05-25T18:38:38.216Z,58.21
2019-05-25T18:41:05.945Z,58.25
2019-05-25T18:43:33.799Z,58.51
2019-05-25T18:46:03.016Z,58.39
2019-05-25T18:48:34.260Z,58.69
2019-05-25T18:51:00.454Z,58.78
2019-05-25T18:53:28.209Z,58.71
2019-05-25T18:55:55.928Z,58.91
2019-05-25T18:58:23.679Z,58.99
2019-05-25T19:00:51.439Z,59.12
2019-05-25T19:03:20.579Z,59.18
2019-05-25T19:05:49.320Z,59.34
2019-05-25T19:08:17.094Z,59.62
2019-05-25T19:10:44.911Z,59.75
2019-05-25T19:13:14.296Z,59.84
2019-05-25T19:15:42.054Z,60.09
2019-05-25T19:18:09.846Z,60.37
2019-05-25T19:20:37.534Z,60.46
2019-05-25T19:23:06.385Z,60.50
2019-05-25T19:25:34.206Z,60.68
2019-05-25T19:28:02.044Z,60.78
2019-05-25T19:30:29.839Z,61.03
2019-05-25T19:32:57.568Z,61.15
2019-05-25T19:35:25.405Z,61.35
2019-05-25T19:37:53.162Z,61.56
2019-05-25T19:40:21.284Z,61.80
2019-05-25T19:42:50.221Z,62.47
2019-05-25T19:45:19.156Z,62.51
2019-05-25T19:47:46.923Z,62.59
2019-05-25T19:50:15.029Z,62.76
2019-05-25T19:52:43.059Z,63.18
2019-05-25T19:55:11.346Z,63.45
2019-05-25T19:57:40.404Z,63.63
2019-05-25T20:00:09.213Z,63.90
2019-05-25T20:02:38.143Z,64.27
2019-05-25T20:05:15.544Z,64.26
2019-05-25T20:07:36.165Z,64.27
2019-05-25T20:10:04.568Z,64.35
2019-05-25T20:12:32.729Z,64.61
2019-05-25T20:15:00.515Z,64.96
2019-05-25T20:17:28.212Z,65.29
2019-05-25T20:19:56.034Z,65.66
2019-05-25T20:22:24.011Z,65.91
2019-05-25T20:24:51.762Z,66.07
2019-05-25T20:27:19.464Z,66.22
2019-05-25T20:29:47.338Z,66.24
2019-05-25T20:32:15.271Z,66.32
2019-05-25T20:34:45.671Z,66.62
2019-05-25T20:37:12.701Z,66.92
2019-05-25T20:39:40.451Z,67.10
2019-05-25T20:42:08.140Z,67.54
2019-05-25T20:44:35.903Z,67.78
2019-05-25T20:47:03.810Z,68.11
2019-05-25T20:49:31.550Z,68.45
2019-05-25T20:51:59.501Z,68.26
2019-05-25T20:54:27.464Z,68.63
2019-05-25T20:56:55.245Z,68.68
2019-05-25T20:59:23.107Z,68.75
2019-05-25T21:01:51.006Z,68.90
2019-05-25T21:04:18.868Z,69.08
2019-05-25T21:06:46.702Z,69.11
2019-05-25T21:09:14.554Z,69.48
2019-05-25T21:11:42.937Z,69.42
2019-05-25T21:14:10.904Z,69.59
2019-05-25T21:16:38.826Z,69.67
2019-05-25T21:19:06.561Z,69.80
2019-05-25T21:21:34.253Z,70.06
2019-05-25T21:24:02.124Z,70.10
2019-05-25T21:26:30.707Z,70.30
2019-05-25T21:28:58.478Z,70.37
2019-05-25T21:31:26.188Z,70.49
2019-05-25T21:33:54.744Z,70.78
2019-05-25T21:36:22.456Z,71.03
2019-05-25T21:38:50.237Z,70.99
2019-05-25T21:41:18.308Z,71.21
2019-05-25T21:43:46.053Z,71.23
2019-05-25T21:46:14.820Z,71.34
2019-05-25T21:48:42.538Z,71.70
2019-05-25T21:51:10.221Z,71.89
2019-05-25T21:53:38.021Z,72.18
2019-05-25T21:56:05.842Z,72.23
2019-05-25T21:58:33.907Z,72.23
2019-05-25T22:01:02.016Z,72.46
2019-05-25T22:03:29.893Z,72.51
2019-05-25T22:05:57.637Z,72.54
2019-05-25T22:08:25.342Z,72.91
2019-05-25T22:10:53.819Z,73.05
2019-05-25T22:13:28.314Z,73.19
2019-05-25T22:15:51.278Z,73.42
2019-05-25T22:18:19.272Z,73.54
2019-05-25T22:20:47.600Z,73.47
2019-05-25T22:23:15.339Z,73.75
2019-05-25T22:25:43.647Z,73.83
2019-05-25T22:28:12.166Z,74.10
2019-05-25T22:30:39.924Z,74.17
2019-05-25T22:33:07.620Z,74.17
2019-05-25T22:35:35.501Z,74.22
2019-05-25T22:38:03.400Z,74.22
2019-05-25T22:40:31.254Z,74.21
2019-05-25T22:42:59.078Z,74.17
2019-05-25T22:45:26.880Z,74.17
2019-05-25T22:47:54.622Z,74.32
2019-05-25T22:50:22.753Z,74.48
2019-05-25T22:52:50.481Z,74.70
2019-05-25T22:55:18.433Z,74.91
2019-05-25T22:57:46.152Z,74.87
2019-05-25T23:00:14.436Z,74.72
2019-05-25T23:02:42.316Z,74.73
2019-05-25T23:05:10.456Z,74.87
2019-05-25T23:07:38.251Z,74.98
2019-05-25T23:10:06.577Z,74.75
2019-05-25T23:12:34.560Z,74.75
2019-05-25T23:15:02.442Z,75.43
2019-05-25T23:17:30.181Z,75.41
2019-05-25T23:19:58.025Z,75.53
2019-05-25T23:22:25.956Z,75.36
2019-05-25T23:24:54.409Z,75.49
2019-05-25T23:27:22.826Z,75.25
2019-05-25T23:29:51.385Z,76.03
2019-05-25T23:32:19.096Z,75.37
2019-05-25T23:34:46.866Z,75.37
2019-05-25T23:37:15.342Z,75.26
2019-05-25T23:39:43.480Z,75.26
2019-05-25T23:42:11.278Z,75.29
2019-05-25T23:44:39.010Z,75.20
2019-05-25T23:47:06.979Z,75.08
2019-05-25T23:49:34.692Z,75.06
2019-05-25T23:52:02.575Z,75.11
2019-05-25T23:54:30.395Z,75.12
2019-05-25T23:56:58.648Z,75.13
2019-05-25T23:59:26.355Z,75.04
